sensor_id;sensor_type;location;lat;lon;timestamp;P1;durP1;ratioP1;P2;durP2;ratioP2
12052;SDS011;6087;48.982;12.064;2022-09-09T00:00:44;3.65;;;3.35;;
12052;SDS011;6087;48.982;12.064;2022-09-09T00:03:16;4.05;;;3.65;;
12052;SDS011;6087;48.982;12.064;2022-09-09T00:05:48;4.40;;;4.00;;
12052;SDS011;6087;48.982;12.064;2022-09-09T00:08:24;5.05;;;4.55;;
12052;SDS011;6087;48.982;12.064;2022-09-09T00:10:59;4.60;;;4.25;;
12052;SDS011;6087;48.982;12.064;2022-09-09T00:13:32;3.97;;;3.67;;
12052;SDS011;6087;48.982;12.064;2022-09-09T00:16:04;4.35;;;4.05;;
12052;SDS011;6087;48.982;12.064;2022-09-09T00:18:40;4.97;;;4.57;;
12052;SDS011;6087;48.982;12.064;2022-09-09T00:21:13;5.60;;;5.05;;
12052;SDS011;6087;48.982;12.064;2022-09-09T00:23:43;4.97;;;4.57;;
12052;SDS011;6087;48.982;12.064;2022-09-09T00:26:16;6.05;;;5.53;;
12052;SDS011;6087;48.982;12.064;2022-09-09T00:28:58;9.23;;;7.82;;
12052;SDS011;6087;48.982;12.064;2022-09-09T00:31:31;6.60;;;5.93;;
12052;SDS011;6087;48.982;12.064;2022-09-09T00:34:00;7.15;;;6.45;;
12052;SDS011;6087;48.982;12.064;2022-09-09T00:36:36;8.27;;;7.05;;
12052;SDS011;6087;48.982;12.064;2022-09-09T00:39:04;6.85;;;6.25;;
12052;SDS011;6087;48.982;12.064;2022-09-09T00:41:35;7.18;;;6.53;;
12052;SDS011;6087;48.982;12.064;2022-09-09T00:44:19;7.10;;;6.43;;
12052;SDS011;6087;48.982;12.064;2022-09-09T00:46:57;6.85;;;6.15;;
12052;SDS011;6087;48.982;12.064;2022-09-09T00:49:36;5.72;;;5.22;;
12052;SDS011;6087;48.982;12.064;2022-09-09T00:52:17;5.85;;;5.35;;
12052;SDS011;6087;48.982;12.064;2022-09-09T00:54:55;6.40;;;5.80;;
12052;SDS011;6087;48.982;12.064;2022-09-09T00:57:30;9.48;;;5.70;;
12052;SDS011;6087;48.982;12.064;2022-09-09T01:00:15;6.25;;;5.75;;
12052;SDS011;6087;48.982;12.064;2022-09-09T01:02:47;6.07;;;5.40;;
12052;SDS011;6087;48.982;12.064;2022-09-09T01:05:33;6.13;;;5.13;;
12052;SDS011;6087;48.982;12.064;2022-09-09T01:08:10;6.05;;;5.25;;
12052;SDS011;6087;48.982;12.064;2022-09-09T01:10:47;5.72;;;5.22;;
12052;SDS011;6087;48.982;12.064;2022-09-09T01:13:20;5.82;;;5.32;;
12052;SDS011;6087;48.982;12.064;2022-09-09T01:15:51;5.45;;;4.93;;
12052;SDS011;6087;48.982;12.064;2022-09-09T01:18:21;7.90;;;6.00;;
12052;SDS011;6087;48.982;12.064;2022-09-09T01:20:55;5.55;;;5.05;;
12052;SDS011;6087;48.982;12.064;2022-09-09T01:23:51;6.10;;;5.38;;
12052;SDS011;6087;48.982;12.064;2022-09-09T01:26:31;5.28;;;4.88;;
12052;SDS011;6087;48.982;12.064;2022-09-09T01:29:01;5.35;;;4.68;;
12052;SDS011;6087;48.982;12.064;2022-09-09T01:31:29;9.95;;;5.40;;
12052;SDS011;6087;48.982;12.064;2022-09-09T01:34:00;7.35;;;4.85;;
12052;SDS011;6087;48.982;12.064;2022-09-09T01:36:29;6.15;;;5.65;;
12052;SDS011;6087;48.982;12.064;2022-09-09T01:39:02;7.65;;;5.22;;
12052;SDS011;6087;48.982;12.064;2022-09-09T01:41:30;7.90;;;6.07;;
12052;SDS011;6087;48.982;12.064;2022-09-09T01:43:57;6.05;;;4.57;;
12052;SDS011;6087;48.982;12.064;2022-09-09T01:46:24;5.35;;;4.85;;
12052;SDS011;6087;48.982;12.064;2022-09-09T01:48:53;4.63;;;4.22;;
12052;SDS011;6087;48.982;12.064;2022-09-09T01:51:21;6.82;;;4.68;;
12052;SDS011;6087;48.982;12.064;2022-09-09T01:53:49;9.63;;;4.90;;
12052;SDS011;6087;48.982;12.064;2022-09-09T01:56:22;5.28;;;4.78;;
12052;SDS011;6087;48.982;12.064;2022-09-09T01:59:03;5.22;;;4.82;;
12052;SDS011;6087;48.982;12.064;2022-09-09T02:01:46;5.43;;;4.93;;
12052;SDS011;6087;48.982;12.064;2022-09-09T02:04:27;6.13;;;5.63;;
12052;SDS011;6087;48.982;12.064;2022-09-09T02:07:03;5.05;;;4.55;;
12052;SDS011;6087;48.982;12.064;2022-09-09T02:09:37;5.00;;;4.60;;
12052;SDS011;6087;48.982;12.064;2022-09-09T02:12:08;6.28;;;5.10;;
12052;SDS011;6087;48.982;12.064;2022-09-09T02:14:42;4.72;;;4.32;;
12052;SDS011;6087;48.982;12.064;2022-09-09T02:17:15;4.57;;;4.22;;
12052;SDS011;6087;48.982;12.064;2022-09-09T02:19:45;5.53;;;5.07;;
12052;SDS011;6087;48.982;12.064;2022-09-09T02:22:15;4.82;;;4.43;;
12052;SDS011;6087;48.982;12.064;2022-09-09T02:24:45;6.07;;;4.93;;
12052;SDS011;6087;48.982;12.064;2022-09-09T02:27:15;5.53;;;4.43;;
12052;SDS011;6087;48.982;12.064;2022-09-09T02:29:45;4.80;;;4.30;;
12052;SDS011;6087;48.982;12.064;2022-09-09T02:32:13;4.93;;;4.53;;
12052;SDS011;6087;48.982;12.064;2022-09-09T02:34:44;5.13;;;4.47;;
12052;SDS011;6087;48.982;12.064;2022-09-09T02:37:13;5.13;;;4.63;;
12052;SDS011;6087;48.982;12.064;2022-09-09T02:39:43;9.75;;;4.68;;
12052;SDS011;6087;48.982;12.064;2022-09-09T02:42:10;5.28;;;4.88;;
12052;SDS011;6087;48.982;12.064;2022-09-09T02:44:40;5.00;;;3.80;;
12052;SDS011;6087;48.982;12.064;2022-09-09T02:47:13;5.03;;;4.60;;
12052;SDS011;6087;48.982;12.064;2022-09-09T02:49:52;4.22;;;3.92;;
12052;SDS011;6087;48.982;12.064;2022-09-09T02:52:30;8.02;;;4.40;;
12052;SDS011;6087;48.982;12.064;2022-09-09T02:55:05;5.38;;;4.43;;
12052;SDS011;6087;48.982;12.064;2022-09-09T02:57:37;6.70;;;3.95;;
12052;SDS011;6087;48.982;12.064;2022-09-09T03:00:06;5.30;;;4.90;;
12052;SDS011;6087;48.982;12.064;2022-09-09T03:02:36;4.47;;;4.07;;
12052;SDS011;6087;48.982;12.064;2022-09-09T03:05:04;5.07;;;4.30;;
12052;SDS011;6087;48.982;12.064;2022-09-09T03:07:31;6.05;;;4.28;;
12052;SDS011;6087;48.982;12.064;2022-09-09T03:09:58;4.97;;;4.57;;
12052;SDS011;6087;48.982;12.064;2022-09-09T03:12:25;11.20;;;5.00;;
12052;SDS011;6087;48.982;12.064;2022-09-09T03:14:52;6.68;;;4.60;;
12052;SDS011;6087;48.982;12.064;2022-09-09T03:17:19;7.95;;;4.70;;
12052;SDS011;6087;48.982;12.064;2022-09-09T03:19:48;5.03;;;4.57;;
12052;SDS011;6087;48.982;12.064;2022-09-09T03:22:15;6.45;;;4.97;;
12052;SDS011;6087;48.982;12.064;2022-09-09T03:24:42;5.60;;;4.72;;
12052;SDS011;6087;48.982;12.064;2022-09-09T03:27:09;10.43;;;4.97;;
12052;SDS011;6087;48.982;12.064;2022-09-09T03:29:36;4.95;;;4.45;;
12052;SDS011;6087;48.982;12.064;2022-09-09T03:32:03;5.55;;;4.63;;
12052;SDS011;6087;48.982;12.064;2022-09-09T03:34:30;4.80;;;4.30;;
12052;SDS011;6087;48.982;12.064;2022-09-09T03:36:59;4.80;;;4.40;;
12052;SDS011;6087;48.982;12.064;2022-09-09T03:39:26;5.53;;;4.88;;
12052;SDS011;6087;48.982;12.064;2022-09-09T03:41:54;6.15;;;4.57;;
12052;SDS011;6087;48.982;12.064;2022-09-09T03:44:20;4.70;;;4.35;;
12052;SDS011;6087;48.982;12.064;2022-09-09T03:46:47;4.80;;;4.40;;
12052;SDS011;6087;48.982;12.064;2022-09-09T03:49:14;4.45;;;4.15;;
12052;SDS011;6087;48.982;12.064;2022-09-09T03:51:41;8.40;;;4.63;;
12052;SDS011;6087;48.982;12.064;2022-09-09T03:54:10;4.85;;;4.35;;
12052;SDS011;6087;48.982;12.064;2022-09-09T03:56:36;4.43;;;4.13;;
12052;SDS011;6087;48.982;12.064;2022-09-09T03:59:05;4.57;;;4.20;;
12052;SDS011;6087;48.982;12.064;2022-09-09T04:01:33;4.75;;;4.35;;
12052;SDS011;6087;48.982;12.064;2022-09-09T04:04:01;4.78;;;4.38;;
12052;SDS011;6087;48.982;12.064;2022-09-09T04:06:28;6.05;;;4.65;;
12052;SDS011;6087;48.982;12.064;2022-09-09T04:08:55;6.28;;;5.03;;
12052;SDS011;6087;48.982;12.064;2022-09-09T04:11:23;5.22;;;4.70;;
12052;SDS011;6087;48.982;12.064;2022-09-09T04:13:50;5.00;;;4.60;;
12052;SDS011;6087;48.982;12.064;2022-09-09T04:16:17;5.75;;;4.60;;
12052;SDS011;6087;48.982;12.064;2022-09-09T04:18:45;5.68;;;4.60;;
12052;SDS011;6087;48.982;12.064;2022-09-09T04:21:12;5.13;;;4.70;;
12052;SDS011;6087;48.982;12.064;2022-09-09T04:23:40;5.13;;;4.72;;
12052;SDS011;6087;48.982;12.064;2022-09-09T04:26:07;6.50;;;4.40;;
12052;SDS011;6087;48.982;12.064;2022-09-09T04:28:36;5.30;;;4.90;;
12052;SDS011;6087;48.982;12.064;2022-09-09T04:31:03;5.40;;;4.90;;
12052;SDS011;6087;48.982;12.064;2022-09-09T04:33:31;5.07;;;4.57;;
12052;SDS011;6087;48.982;12.064;2022-09-09T04:35:58;4.85;;;4.20;;
12052;SDS011;6087;48.982;12.064;2022-09-09T04:38:25;5.55;;;5.00;;
12052;SDS011;6087;48.982;12.064;2022-09-09T04:40:52;4.72;;;4.32;;
12052;SDS011;6087;48.982;12.064;2022-09-09T04:43:20;7.65;;;4.90;;
12052;SDS011;6087;48.982;12.064;2022-09-09T04:45:49;5.70;;;4.55;;
12052;SDS011;6087;48.982;12.064;2022-09-09T04:48:17;5.28;;;4.72;;
12052;SDS011;6087;48.982;12.064;2022-09-09T04:50:45;7.80;;;5.10;;
12052;SDS011;6087;48.982;12.064;2022-09-09T04:53:20;4.82;;;4.43;;
12052;SDS011;6087;48.982;12.064;2022-09-09T04:55:48;4.55;;;4.15;;
12052;SDS011;6087;48.982;12.064;2022-09-09T04:58:14;5.28;;;4.88;;
12052;SDS011;6087;48.982;12.064;2022-09-09T05:00:42;5.35;;;4.95;;
12052;SDS011;6087;48.982;12.064;2022-09-09T05:03:10;7.13;;;6.43;;
12052;SDS011;6087;48.982;12.064;2022-09-09T05:05:37;6.63;;;6.05;;
12052;SDS011;6087;48.982;12.064;2022-09-09T05:08:05;5.80;;;5.30;;
12052;SDS011;6087;48.982;12.064;2022-09-09T05:10:36;5.80;;;5.30;;
12052;SDS011;6087;48.982;12.064;2022-09-09T05:13:04;6.28;;;5.68;;
12052;SDS011;6087;48.982;12.064;2022-09-09T05:15:31;7.63;;;6.93;;
12052;SDS011;6087;48.982;12.064;2022-09-09T05:17:59;8.65;;;5.63;;
12052;SDS011;6087;48.982;12.064;2022-09-09T05:20:29;6.25;;;5.65;;
12052;SDS011;6087;48.982;12.064;2022-09-09T05:22:56;5.80;;;5.32;;
12052;SDS011;6087;48.982;12.064;2022-09-09T05:25:23;7.63;;;5.47;;
12052;SDS011;6087;48.982;12.064;2022-09-09T05:27:51;6.88;;;6.10;;
12052;SDS011;6087;48.982;12.064;2022-09-09T05:30:18;6.60;;;5.90;;
12052;SDS011;6087;48.982;12.064;2022-09-09T05:32:45;6.30;;;5.70;;
12052;SDS011;6087;48.982;12.064;2022-09-09T05:35:14;6.90;;;6.20;;
12052;SDS011;6087;48.982;12.064;2022-09-09T05:37:42;5.97;;;5.47;;
12052;SDS011;6087;48.982;12.064;2022-09-09T05:40:11;9.40;;;5.90;;
12052;SDS011;6087;48.982;12.064;2022-09-09T05:42:37;5.80;;;5.30;;
12052;SDS011;6087;48.982;12.064;2022-09-09T05:45:05;6.32;;;5.72;;
12052;SDS011;6087;48.982;12.064;2022-09-09T05:47:33;6.03;;;5.43;;
12052;SDS011;6087;48.982;12.064;2022-09-09T05:50:02;6.22;;;5.63;;
12052;SDS011;6087;48.982;12.064;2022-09-09T05:52:29;7.45;;;5.63;;
12052;SDS011;6087;48.982;12.064;2022-09-09T05:54:58;5.93;;;5.43;;
12052;SDS011;6087;48.982;12.064;2022-09-09T05:57:25;5.18;;;4.78;;
12052;SDS011;6087;48.982;12.064;2022-09-09T05:59:52;6.53;;;5.88;;
12052;SDS011;6087;48.982;12.064;2022-09-09T06:02:19;5.72;;;5.22;;
12052;SDS011;6087;48.982;12.064;2022-09-09T06:04:46;4.95;;;4.55;;
12052;SDS011;6087;48.982;12.064;2022-09-09T06:07:14;4.72;;;4.38;;
12052;SDS011;6087;48.982;12.064;2022-09-09T06:09:41;5.68;;;5.15;;
12052;SDS011;6087;48.982;12.064;2022-09-09T06:12:10;5.28;;;4.85;;
12052;SDS011;6087;48.982;12.064;2022-09-09T06:14:37;5.68;;;4.97;;
12052;SDS011;6087;48.982;12.064;2022-09-09T06:17:04;5.50;;;5.00;;
12052;SDS011;6087;48.982;12.064;2022-09-09T06:19:31;5.65;;;5.15;;
12052;SDS011;6087;48.982;12.064;2022-09-09T06:21:58;5.43;;;4.93;;
12052;SDS011;6087;48.982;12.064;2022-09-09T06:24:28;6.13;;;5.40;;
12052;SDS011;6087;48.982;12.064;2022-09-09T06:26:55;6.10;;;5.60;;
12052;SDS011;6087;48.982;12.064;2022-09-09T06:29:23;5.53;;;5.03;;
12052;SDS011;6087;48.982;12.064;2022-09-09T06:31:50;5.47;;;4.85;;
12052;SDS011;6087;48.982;12.064;2022-09-09T06:34:17;5.90;;;5.38;;
12052;SDS011;6087;48.982;12.064;2022-09-09T06:36:44;5.72;;;5.13;;
12052;SDS011;6087;48.982;12.064;2022-09-09T06:39:11;7.25;;;5.53;;
12052;SDS011;6087;48.982;12.064;2022-09-09T06:41:40;5.35;;;4.95;;
12052;SDS011;6087;48.982;12.064;2022-09-09T06:44:08;9.27;;;4.88;;
12052;SDS011;6087;48.982;12.064;2022-09-09T06:46:38;5.32;;;4.85;;
12052;SDS011;6087;48.982;12.064;2022-09-09T06:49:05;5.95;;;5.28;;
12052;SDS011;6087;48.982;12.064;2022-09-09T06:51:33;5.53;;;5.03;;
12052;SDS011;6087;48.982;12.064;2022-09-09T06:54:03;6.88;;;6.07;;
12052;SDS011;6087;48.982;12.064;2022-09-09T06:56:31;5.50;;;5.00;;
12052;SDS011;6087;48.982;12.064;2022-09-09T06:59:00;6.32;;;5.72;;
12052;SDS011;6087;48.982;12.064;2022-09-09T07:01:30;6.97;;;6.30;;
12052;SDS011;6087;48.982;12.064;2022-09-09T07:03:59;8.82;;;6.78;;
12052;SDS011;6087;48.982;12.064;2022-09-09T07:06:29;7.22;;;6.20;;
12052;SDS011;6087;48.982;12.064;2022-09-09T07:08:58;9.57;;;6.60;;
12052;SDS011;6087;48.982;12.064;2022-09-09T07:11:26;6.75;;;6.05;;
12052;SDS011;6087;48.982;12.064;2022-09-09T07:13:54;6.75;;;6.15;;
12052;SDS011;6087;48.982;12.064;2022-09-09T07:16:23;6.95;;;6.35;;
12052;SDS011;6087;48.982;12.064;2022-09-09T07:18:52;6.53;;;5.93;;
12052;SDS011;6087;48.982;12.064;2022-09-09T07:21:24;7.28;;;6.57;;
12052;SDS011;6087;48.982;12.064;2022-09-09T07:23:52;6.28;;;5.68;;
12052;SDS011;6087;48.982;12.064;2022-09-09T07:26:20;7.03;;;6.43;;
12052;SDS011;6087;48.982;12.064;2022-09-09T07:28:48;7.60;;;6.72;;
12052;SDS011;6087;48.982;12.064;2022-09-09T07:31:16;7.70;;;6.43;;
12052;SDS011;6087;48.982;12.064;2022-09-09T07:33:45;6.53;;;5.93;;
12052;SDS011;6087;48.982;12.064;2022-09-09T07:36:14;7.22;;;6.53;;
12052;SDS011;6087;48.982;12.064;2022-09-09T07:38:44;7.53;;;6.90;;
12052;SDS011;6087;48.982;12.064;2022-09-09T07:41:13;6.75;;;5.97;;
12052;SDS011;6087;48.982;12.064;2022-09-09T07:43:42;6.78;;;6.18;;
12052;SDS011;6087;48.982;12.064;2022-09-09T07:46:10;6.65;;;6.05;;
12052;SDS011;6087;48.982;12.064;2022-09-09T07:48:39;6.07;;;5.47;;
12052;SDS011;6087;48.982;12.064;2022-09-09T07:51:11;6.75;;;5.53;;
12052;SDS011;6087;48.982;12.064;2022-09-09T07:53:40;5.82;;;5.32;;
12052;SDS011;6087;48.982;12.064;2022-09-09T07:56:10;5.13;;;4.72;;
12052;SDS011;6087;48.982;12.064;2022-09-09T07:58:39;5.03;;;4.63;;
12052;SDS011;6087;48.982;12.064;2022-09-09T08:01:07;5.80;;;5.30;;
12052;SDS011;6087;48.982;12.064;2022-09-09T08:03:36;5.47;;;4.97;;
12052;SDS011;6087;48.982;12.064;2022-09-09T08:06:04;4.80;;;4.32;;
12052;SDS011;6087;48.982;12.064;2022-09-09T08:08:33;4.78;;;4.30;;
12052;SDS011;6087;48.982;12.064;2022-09-09T08:11:04;3.97;;;3.55;;
12052;SDS011;6087;48.982;12.064;2022-09-09T08:13:34;4.38;;;3.97;;
12052;SDS011;6087;48.982;12.064;2022-09-09T08:16:05;4.45;;;4.07;;
12052;SDS011;6087;48.982;12.064;2022-09-09T08:18:34;3.38;;;3.08;;
12052;SDS011;6087;48.982;12.064;2022-09-09T08:21:05;4.45;;;3.35;;
12052;SDS011;6087;48.982;12.064;2022-09-09T08:23:33;4.18;;;3.20;;
12052;SDS011;6087;48.982;12.064;2022-09-09T08:26:04;3.42;;;3.13;;
12052;SDS011;6087;48.982;12.064;2022-09-09T08:28:35;3.65;;;2.88;;
12052;SDS011;6087;48.982;12.064;2022-09-09T08:31:06;2.85;;;2.58;;
12052;SDS011;6087;48.982;12.064;2022-09-09T08:33:34;2.70;;;2.50;;
12052;SDS011;6087;48.982;12.064;2022-09-09T08:36:03;3.28;;;2.97;;
12052;SDS011;6087;48.982;12.064;2022-09-09T08:38:31;2.92;;;2.55;;
12052;SDS011;6087;48.982;12.064;2022-09-09T08:41:00;4.35;;;2.80;;
12052;SDS011;6087;48.982;12.064;2022-09-09T08:43:47;4.70;;;3.00;;
12052;SDS011;6087;48.982;12.064;2022-09-09T08:46:25;6.32;;;2.67;;
12052;SDS011;6087;48.982;12.064;2022-09-09T08:49:04;4.28;;;2.55;;
12052;SDS011;6087;48.982;12.064;2022-09-09T08:51:37;2.58;;;2.38;;
12052;SDS011;6087;48.982;12.064;2022-09-09T08:54:04;3.95;;;2.85;;
12052;SDS011;6087;48.982;12.064;2022-09-09T08:56:32;3.95;;;2.70;;
12052;SDS011;6087;48.982;12.064;2022-09-09T08:59:01;3.30;;;2.42;;
12052;SDS011;6087;48.982;12.064;2022-09-09T09:01:35;4.00;;;2.55;;
12052;SDS011;6087;48.982;12.064;2022-09-09T09:04:12;3.10;;;2.67;;
12052;SDS011;6087;48.982;12.064;2022-09-09T09:06:50;3.20;;;2.90;;
12052;SDS011;6087;48.982;12.064;2022-09-09T09:09:26;3.17;;;2.85;;
12052;SDS011;6087;48.982;12.064;2022-09-09T09:12:01;5.13;;;2.50;;
12052;SDS011;6087;48.982;12.064;2022-09-09T09:14:36;4.18;;;3.38;;
12052;SDS011;6087;48.982;12.064;2022-09-09T09:17:06;3.67;;;3.28;;
12052;SDS011;6087;48.982;12.064;2022-09-09T09:19:39;3.45;;;3.10;;
12052;SDS011;6087;48.982;12.064;2022-09-09T09:22:11;3.10;;;2.78;;
12052;SDS011;6087;48.982;12.064;2022-09-09T09:24:45;2.92;;;2.67;;
12052;SDS011;6087;48.982;12.064;2022-09-09T09:27:21;3.00;;;2.80;;
12052;SDS011;6087;48.982;12.064;2022-09-09T09:29:58;5.22;;;3.70;;
12052;SDS011;6087;48.982;12.064;2022-09-09T09:32:28;3.45;;;2.30;;
12052;SDS011;6087;48.982;12.064;2022-09-09T09:34:59;3.50;;;2.70;;
12052;SDS011;6087;48.982;12.064;2022-09-09T09:37:33;3.42;;;3.15;;
12052;SDS011;6087;48.982;12.064;2022-09-09T09:40:10;3.45;;;2.67;;
12052;SDS011;6087;48.982;12.064;2022-09-09T09:42:37;4.68;;;2.30;;
12052;SDS011;6087;48.982;12.064;2022-09-09T09:45:17;3.92;;;2.47;;
12052;SDS011;6087;48.982;12.064;2022-09-09T09:47:58;4.18;;;2.50;;
12052;SDS011;6087;48.982;12.064;2022-09-09T09:50:27;2.38;;;2.20;;
12052;SDS011;6087;48.982;12.064;2022-09-09T09:52:54;2.05;;;1.85;;
12052;SDS011;6087;48.982;12.064;2022-09-09T09:55:23;2.95;;;1.70;;
12052;SDS011;6087;48.982;12.064;2022-09-09T09:57:52;1.83;;;1.73;;
12052;SDS011;6087;48.982;12.064;2022-09-09T10:00:21;3.17;;;2.35;;
12052;SDS011;6087;48.982;12.064;2022-09-09T10:02:50;3.15;;;2.40;;
12052;SDS011;6087;48.982;12.064;2022-09-09T10:05:18;3.83;;;2.30;;
12052;SDS011;6087;48.982;12.064;2022-09-09T10:07:59;3.35;;;2.33;;
12052;SDS011;6087;48.982;12.064;2022-09-09T10:10:30;3.35;;;2.20;;
12052;SDS011;6087;48.982;12.064;2022-09-09T10:13:09;7.00;;;1.77;;
12052;SDS011;6087;48.982;12.064;2022-09-09T10:15:44;3.13;;;1.42;;
12052;SDS011;6087;48.982;12.064;2022-09-09T10:18:24;1.88;;;1.20;;
12052;SDS011;6087;48.982;12.064;2022-09-09T10:21:15;4.07;;;1.65;;
12052;SDS011;6087;48.982;12.064;2022-09-09T10:23:59;3.15;;;1.83;;
12052;SDS011;6087;48.982;12.064;2022-09-09T10:26:40;3.88;;;1.83;;
12052;SDS011;6087;48.982;12.064;2022-09-09T10:29:29;2.67;;;1.60;;
12052;SDS011;6087;48.982;12.064;2022-09-09T10:32:14;4.80;;;2.10;;
12052;SDS011;6087;48.982;12.064;2022-09-09T10:34:56;1.92;;;1.67;;
12052;SDS011;6087;48.982;12.064;2022-09-09T10:37:38;2.65;;;2.00;;
12052;SDS011;6087;48.982;12.064;2022-09-09T10:40:19;4.63;;;2.10;;
12052;SDS011;6087;48.982;12.064;2022-09-09T10:42:56;2.13;;;1.92;;
12052;SDS011;6087;48.982;12.064;2022-09-09T10:45:32;2.50;;;2.08;;
12052;SDS011;6087;48.982;12.064;2022-09-09T10:48:14;6.18;;;2.10;;
12052;SDS011;6087;48.982;12.064;2022-09-09T10:51:01;3.33;;;2.08;;
12052;SDS011;6087;48.982;12.064;2022-09-09T10:53:42;2.55;;;1.85;;
12052;SDS011;6087;48.982;12.064;2022-09-09T10:56:18;2.58;;;1.77;;
12052;SDS011;6087;48.982;12.064;2022-09-09T10:58:49;2.47;;;1.52;;
12052;SDS011;6087;48.982;12.064;2022-09-09T11:01:19;2.40;;;1.35;;
12052;SDS011;6087;48.982;12.064;2022-09-09T11:03:51;1.98;;;1.33;;
12052;SDS011;6087;48.982;12.064;2022-09-09T11:06:22;1.70;;;1.58;;
12052;SDS011;6087;48.982;12.064;2022-09-09T11:08:54;3.85;;;1.40;;
12052;SDS011;6087;48.982;12.064;2022-09-09T11:11:25;3.85;;;1.50;;
12052;SDS011;6087;48.982;12.064;2022-09-09T11:13:57;1.55;;;1.10;;
12052;SDS011;6087;48.982;12.064;2022-09-09T11:16:28;3.20;;;1.38;;
12052;SDS011;6087;48.982;12.064;2022-09-09T11:19:02;3.60;;;1.48;;
12052;SDS011;6087;48.982;12.064;2022-09-09T11:21:37;2.97;;;1.27;;
12052;SDS011;6087;48.982;12.064;2022-09-09T11:24:11;2.42;;;1.65;;
12052;SDS011;6087;48.982;12.064;2022-09-09T11:26:44;1.75;;;1.50;;
12052;SDS011;6087;48.982;12.064;2022-09-09T11:29:20;2.25;;;1.10;;
12052;SDS011;6087;48.982;12.064;2022-09-09T11:32:12;2.40;;;1.10;;
12052;SDS011;6087;48.982;12.064;2022-09-09T11:34:59;4.15;;;1.30;;
12052;SDS011;6087;48.982;12.064;2022-09-09T11:38:03;1.48;;;1.10;;
12052;SDS011;6087;48.982;12.064;2022-09-09T11:40:43;1.98;;;1.65;;
12052;SDS011;6087;48.982;12.064;2022-09-09T11:43:12;1.20;;;1.15;;
12052;SDS011;6087;48.982;12.064;2022-09-09T11:45:41;1.95;;;1.08;;
12052;SDS011;6087;48.982;12.064;2022-09-09T11:48:22;1.70;;;1.52;;
12052;SDS011;6087;48.982;12.064;2022-09-09T11:50:58;2.08;;;1.00;;
12052;SDS011;6087;48.982;12.064;2022-09-09T11:53:28;2.25;;;1.25;;
12052;SDS011;6087;48.982;12.064;2022-09-09T11:56:11;2.25;;;1.38;;
12052;SDS011;6087;48.982;12.064;2022-09-09T11:58:43;1.30;;;1.20;;
12052;SDS011;6087;48.982;12.064;2022-09-09T12:01:27;3.20;;;1.30;;
12052;SDS011;6087;48.982;12.064;2022-09-09T12:04:16;2.97;;;1.27;;
12052;SDS011;6087;48.982;12.064;2022-09-09T12:07:00;2.72;;;1.33;;
12052;SDS011;6087;48.982;12.064;2022-09-09T12:09:33;2.75;;;1.20;;
12052;SDS011;6087;48.982;12.064;2022-09-09T12:12:27;2.67;;;1.08;;
12052;SDS011;6087;48.982;12.064;2022-09-09T12:14:56;2.17;;;1.20;;
12052;SDS011;6087;48.982;12.064;2022-09-09T12:17:26;2.75;;;1.15;;
12052;SDS011;6087;48.982;12.064;2022-09-09T12:20:03;1.52;;;1.42;;
12052;SDS011;6087;48.982;12.064;2022-09-09T12:22:40;3.67;;;1.25;;
12052;SDS011;6087;48.982;12.064;2022-09-09T12:25:17;1.65;;;1.25;;
12052;SDS011;6087;48.982;12.064;2022-09-09T12:27:55;1.20;;;1.10;;
12052;SDS011;6087;48.982;12.064;2022-09-09T12:30:31;4.13;;;1.50;;
12052;SDS011;6087;48.982;12.064;2022-09-09T12:33:08;2.60;;;1.08;;
12052;SDS011;6087;48.982;12.064;2022-09-09T12:35:38;1.77;;;1.30;;
12052;SDS011;6087;48.982;12.064;2022-09-09T12:38:10;1.92;;;1.20;;
12052;SDS011;6087;48.982;12.064;2022-09-09T12:40:53;1.55;;;1.33;;
12052;SDS011;6087;48.982;12.064;2022-09-09T12:43:22;2.97;;;1.40;;
12052;SDS011;6087;48.982;12.064;2022-09-09T12:45:51;3.45;;;1.33;;
12052;SDS011;6087;48.982;12.064;2022-09-09T12:48:24;1.88;;;1.27;;
12052;SDS011;6087;48.982;12.064;2022-09-09T12:50:58;2.35;;;1.30;;
12052;SDS011;6087;48.982;12.064;2022-09-09T12:53:28;1.42;;;1.13;;
12052;SDS011;6087;48.982;12.064;2022-09-09T12:55:59;5.45;;;1.75;;
12052;SDS011;6087;48.982;12.064;2022-09-09T12:58:28;1.52;;;1.00;;
12052;SDS011;6087;48.982;12.064;2022-09-09T13:00:58;1.02;;;1.00;;
12052;SDS011;6087;48.982;12.064;2022-09-09T13:03:26;3.10;;;1.02;;
12052;SDS011;6087;48.982;12.064;2022-09-09T13:05:53;1.33;;;1.15;;
12052;SDS011;6087;48.982;12.064;2022-09-09T13:08:26;1.95;;;1.15;;
12052;SDS011;6087;48.982;12.064;2022-09-09T13:10:54;2.45;;;1.38;;
12052;SDS011;6087;48.982;12.064;2022-09-09T13:13:26;2.00;;;1.10;;
12052;SDS011;6087;48.982;12.064;2022-09-09T13:15:56;1.00;;;0.90;;
12052;SDS011;6087;48.982;12.064;2022-09-09T13:18:25;0.88;;;0.88;;
12052;SDS011;6087;48.982;12.064;2022-09-09T13:20:55;3.10;;;1.00;;
12052;SDS011;6087;48.982;12.064;2022-09-09T13:23:25;1.42;;;0.85;;
12052;SDS011;6087;48.982;12.064;2022-09-09T13:25:56;1.95;;;1.25;;
12052;SDS011;6087;48.982;12.064;2022-09-09T13:28:25;1.27;;;1.10;;
12052;SDS011;6087;48.982;12.064;2022-09-09T13:30:55;0.75;;;0.75;;
12052;SDS011;6087;48.982;12.064;2022-09-09T13:33:29;1.70;;;0.95;;
12052;SDS011;6087;48.982;12.064;2022-09-09T13:35:58;3.28;;;1.20;;
12052;SDS011;6087;48.982;12.064;2022-09-09T13:38:29;1.98;;;1.27;;
12052;SDS011;6087;48.982;12.064;2022-09-09T13:40:59;1.38;;;1.10;;
12052;SDS011;6087;48.982;12.064;2022-09-09T13:43:29;1.40;;;1.30;;
12052;SDS011;6087;48.982;12.064;2022-09-09T13:46:00;4.22;;;1.30;;
12052;SDS011;6087;48.982;12.064;2022-09-09T13:48:28;1.90;;;1.17;;
12052;SDS011;6087;48.982;12.064;2022-09-09T13:50:57;3.58;;;1.38;;
12052;SDS011;6087;48.982;12.064;2022-09-09T13:53:26;2.78;;;1.02;;
12052;SDS011;6087;48.982;12.064;2022-09-09T13:55:55;1.08;;;1.00;;
12052;SDS011;6087;48.982;12.064;2022-09-09T13:58:23;0.95;;;0.80;;
12052;SDS011;6087;48.982;12.064;2022-09-09T14:00:51;1.83;;;1.35;;
12052;SDS011;6087;48.982;12.064;2022-09-09T14:03:18;2.17;;;1.20;;
12052;SDS011;6087;48.982;12.064;2022-09-09T14:05:48;2.00;;;0.93;;
12052;SDS011;6087;48.982;12.064;2022-09-09T14:08:20;1.85;;;0.85;;
12052;SDS011;6087;48.982;12.064;2022-09-09T14:10:51;2.33;;;1.10;;
12052;SDS011;6087;48.982;12.064;2022-09-09T14:13:24;0.80;;;0.80;;
12052;SDS011;6087;48.982;12.064;2022-09-09T14:15:51;1.13;;;0.95;;
12052;SDS011;6087;48.982;12.064;2022-09-09T14:18:18;0.70;;;0.70;;
12052;SDS011;6087;48.982;12.064;2022-09-09T14:20:47;2.40;;;0.80;;
12052;SDS011;6087;48.982;12.064;2022-09-09T14:23:15;0.82;;;0.80;;
12052;SDS011;6087;48.982;12.064;2022-09-09T14:25:43;3.80;;;0.95;;
12052;SDS011;6087;48.982;12.064;2022-09-09T14:28:13;0.80;;;0.80;;
12052;SDS011;6087;48.982;12.064;2022-09-09T14:30:40;2.53;;;1.35;;
12052;SDS011;6087;48.982;12.064;2022-09-09T14:33:10;1.38;;;0.98;;
12052;SDS011;6087;48.982;12.064;2022-09-09T14:35:38;1.13;;;1.02;;
12052;SDS011;6087;48.982;12.064;2022-09-09T14:38:06;1.75;;;0.82;;
12052;SDS011;6087;48.982;12.064;2022-09-09T14:40:34;3.00;;;1.02;;
12052;SDS011;6087;48.982;12.064;2022-09-09T14:43:02;0.80;;;0.80;;
12052;SDS011;6087;48.982;12.064;2022-09-09T14:45:32;1.60;;;1.00;;
12052;SDS011;6087;48.982;12.064;2022-09-09T14:47:58;1.20;;;1.10;;
12052;SDS011;6087;48.982;12.064;2022-09-09T14:50:26;4.35;;;1.45;;
12052;SDS011;6087;48.982;12.064;2022-09-09T14:52:53;1.98;;;0.85;;
12052;SDS011;6087;48.982;12.064;2022-09-09T14:55:20;1.65;;;0.95;;
12052;SDS011;6087;48.982;12.064;2022-09-09T14:57:47;1.27;;;1.17;;
12052;SDS011;6087;48.982;12.064;2022-09-09T15:00:15;3.13;;;1.30;;
12052;SDS011;6087;48.982;12.064;2022-09-09T15:02:43;1.33;;;0.95;;
12052;SDS011;6087;48.982;12.064;2022-09-09T15:05:10;2.88;;;1.20;;
12052;SDS011;6087;48.982;12.064;2022-09-09T15:07:37;3.85;;;1.63;;
12052;SDS011;6087;48.982;12.064;2022-09-09T15:10:04;1.30;;;1.02;;
12052;SDS011;6087;48.982;12.064;2022-09-09T15:12:32;2.50;;;1.20;;